Time;durP1;ratioP1;P1;durP2;ratioP2;P2;SDS_P1;SDS_P2;PMS_P1;PMS_P2;Temp;Humidity;BMP_temperature;BMP_pressure;BME280_temperature;BME280_humidity;BME280_pressure;Samples;Min_cycle;Max_cycle;Signal;HPM_P1;HPM_P2
2024/03/13 00:01:23;;;;;;;38.90;33.50;;;6.20;91.10;;;;;;5057068;28;20630;-87
2024/03/13 00:03:48;;;;;;;48.17;43.43;;;6.20;91.10;;;;;;5057275;28;20167;-87
2024/03/13 00:06:14;;;;;;;46.77;42.13;;;6.20;91.00;;;;;;5056763;28;20746;-87
2024/03/13 00:08:41;;;;;;;50.83;45.73;;;6.20;90.70;;;;;;5074800;28;20546;-87
2024/03/13 00:11:06;;;;;;;50.33;45.07;;;6.00;90.70;;;;;;5056744;28;20203;-87
2024/03/13 00:13:32;;;;;;;50.93;45.40;;;5.90;90.80;;;;;;5074857;28;20700;-87
2024/03/13 00:15:58;;;;;;;52.73;47.47;;;5.90;90.90;;;;;;5056797;28;20183;-87
2024/03/13 00:18:24;;;;;;;50.60;45.40;;;5.90;91.00;;;;;;5074487;28;20522;-87
2024/03/13 00:20:49;;;;;;;52.40;46.87;;;5.90;91.10;;;;;;5056529;28;20207;-87
2024/03/13 00:23:15;;;;;;;50.87;45.63;;;6.00;91.10;;;;;;5074713;28;20195;-87
2024/03/13 00:25:40;;;;;;;50.00;44.73;;;6.00;91.00;;;;;;5074283;28;20241;-87
2024/03/13 00:28:07;;;;;;;51.67;46.13;;;5.90;90.80;;;;;;5074634;28;20186;-87
2024/03/13 00:30:33;;;;;;;51.43;45.87;;;5.90;91.00;;;;;;5056400;28;20564;-87
2024/03/13 00:32:59;;;;;;;53.40;44.93;;;5.90;91.20;;;;;;5056407;28;20167;-87
2024/03/13 00:35:25;;;;;;;50.87;45.00;;;5.80;91.40;;;;;;5074270;28;20228;-87
2024/03/13 00:37:51;;;;;;;53.67;45.30;;;5.80;91.60;;;;;;5074136;28;20586;-87
2024/03/13 00:40:16;;;;;;;55.17;44.90;;;5.80;91.90;;;;;;5074216;28;20203;-87
2024/03/13 00:42:46;;;;;;;55.27;46.57;;;5.80;92.10;;;;;;5055781;28;20197;-87
2024/03/13 00:45:11;;;;;;;51.00;44.30;;;5.80;92.20;;;;;;5073912;28;20204;-87
2024/03/13 00:47:37;;;;;;;50.37;44.73;;;5.90;92.30;;;;;;5056087;28;20179;-88
2024/03/13 00:50:04;;;;;;;50.63;44.27;;;5.90;92.50;;;;;;5073686;28;20698;-88
2024/03/13 00:52:30;;;;;;;52.67;45.70;;;5.90;92.60;;;;;;5055956;28;20174;-87
2024/03/13 00:54:55;;;;;;;53.53;47.13;;;6.10;92.70;;;;;;5073909;28;20179;-87
2024/03/13 00:57:21;;;;;;;51.53;45.13;;;6.10;92.60;;;;;;5073772;28;20179;-87
2024/03/13 00:59:47;;;;;;;55.20;46.40;;;6.00;92.60;;;;;;5055765;28;20278;-88
2024/03/13 01:02:13;;;;;;;62.80;47.77;;;6.10;92.70;;;;;;5073637;28;20593;-88
2024/03/13 01:04:38;;;;;;;58.70;45.47;;;6.30;92.90;;;;;;5073826;28;20191;-87
2024/03/13 01:07:06;;;;;;;54.90;47.10;;;6.40;92.70;;;;;;5073610;28;20224;-87
2024/03/13 01:09:32;;;;;;;57.40;47.17;;;6.40;92.60;;;;;;5055578;28;20191;-87
2024/03/13 01:11:58;;;;;;;56.53;45.47;;;6.30;92.40;;;;;;5073545;28;20237;-87
2024/03/13 01:14:23;;;;;;;55.97;45.60;;;6.10;92.40;;;;;;5073453;28;20619;-87
2024/03/13 01:16:52;;;;;;;56.50;44.90;;;6.00;92.60;;;;;;5073475;28;20171;-87
2024/03/13 01:19:22;;;;;;;57.50;45.93;;;6.10;92.70;;;;;;5073322;28;20567;-87
2024/03/13 01:21:53;;;;;;;50.57;44.37;;;6.00;92.80;;;;;;5055461;28;20637;-87
2024/03/13 01:24:19;;;;;;;54.10;45.27;;;6.20;92.80;;;;;;5055460;28;20266;-87
2024/03/13 01:26:45;;;;;;;46.10;34.70;;;6.20;92.80;;;;;;5073407;28;20172;-87
2024/03/13 01:29:11;;;;;;;46.53;36.17;;;6.00;92.60;;;;;;5073237;28;20213;-87
2024/03/13 01:31:37;;;;;;;46.30;35.63;;;6.00;92.60;;;;;;5055327;28;20182;-87
2024/03/13 01:34:04;;;;;;;51.70;36.93;;;5.90;92.50;;;;;;5073183;28;20552;-87
2024/03/13 01:39:17;;;;;;;49.40;37.63;;;5.90;92.70;;;;;;5073162;28;20553;-87
2024/03/13 01:55:44;;;;;;;56.20;39.73;;;5.90;92.90;;;;;;5072390;28;20217;-88
2024/03/13 01:58:10;;;;;;;51.07;36.83;;;6.00;92.90;;;;;;5073005;28;20155;-88
2024/03/13 02:03:22;;;;;;;48.13;38.17;;;5.80;92.70;;;;;;5073121;28;20688;-88
2024/03/13 02:05:50;;;;;;;50.80;37.77;;;5.90;92.80;;;;;;5072910;28;20230;-88
2024/03/13 02:08:17;;;;;;;50.10;37.90;;;5.90;92.80;;;;;;5055078;28;20172;-87
2024/03/13 02:13:16;;;;;;;47.37;37.40;;;6.10;92.60;;;;;;5055348;28;20211;-86
2024/03/13 02:15:43;;;;;;;48.37;37.93;;;6.00;92.20;;;;;;5038826;28;20180;-87
2024/03/13 02:18:20;;;;;;;48.73;36.83;;;5.80;92.20;;;;;;5038008;28;20270;-87
2024/03/13 02:20:47;;;;;;;45.43;36.47;;;5.80;92.20;;;;;;5038711;28;20206;-87
2024/03/13 02:23:22;;;;;;;49.80;36.80;;;5.80;92.20;;;;;;5055724;28;20168;-87
2024/03/13 02:25:48;;;;;;;50.43;39.40;;;5.70;92.30;;;;;;5037580;28;20249;-86
2024/03/13 02:28:17;;;;;;;53.67;40.07;;;5.80;92.30;;;;;;5056221;28;20644;-86
2024/03/13 02:30:42;;;;;;;49.10;36.53;;;5.80;92.30;;;;;;5056540;28;20175;-87
2024/03/13 02:33:11;;;;;;;50.07;39.27;;;5.70;92.30;;;;;;5038532;28;20267;-87
2024/03/13 02:35:37;;;;;;;49.57;37.87;;;5.80;92.40;;;;;;5056011;28;20226;-86
2024/03/13 02:38:02;;;;;;;58.77;51.97;;;5.80;92.20;;;;;;5038108;28;20173;-86
2024/03/13 02:40:28;;;;;;;60.60;50.97;;;5.80;92.30;;;;;;5038709;28;20199;-86
2024/03/13 02:42:54;;;;;;;59.13;49.33;;;5.70;92.10;;;;;;5056143;28;20191;-86
2024/03/13 02:45:19;;;;;;;57.33;51.13;;;5.70;92.10;;;;;;5038423;28;20210;-86
2024/03/13 02:47:45;;;;;;;58.40;49.63;;;5.60;92.10;;;;;;5037903;28;20185;-86
2024/03/13 02:50:11;;;;;;;57.60;49.57;;;5.70;92.20;;;;;;5038151;28;20176;-87
2024/03/13 02:52:40;;;;;;;57.00;47.97;;;5.60;92.10;;;;;;5056760;28;20211;-86
2024/03/13 02:55:07;;;;;;;62.37;50.60;;;5.60;91.90;;;;;;5039365;28;20180;-87
2024/03/13 02:57:33;;;;;;;58.37;50.63;;;5.60;91.90;;;;;;5056982;28;20184;-86
2024/03/13 02:59:58;;;;;;;57.23;49.47;;;5.50;91.80;;;;;;5038595;28;20191;-86
2024/03/13 03:02:24;;;;;;;62.23;51.30;;;5.40;91.80;;;;;;5039125;28;20200;-86
2024/03/13 03:04:50;;;;;;;64.03;52.40;;;5.40;91.70;;;;;;5039636;28;20199;-86
2024/03/13 03:07:16;;;;;;;63.57;50.53;;;5.30;91.80;;;;;;5041663;28;20172;-86
2024/03/13 03:09:42;;;;;;;65.10;51.80;;;5.20;91.80;;;;;;5043157;28;20210;-86
2024/03/13 03:12:09;;;;;;;67.87;52.43;;;5.10;91.90;;;;;;5042729;28;20311;-86
2024/03/13 03:14:39;;;;;;;60.77;48.97;;;5.00;92.20;;;;;;5060624;28;20226;-86
2024/03/13 03:17:06;;;;;;;64.73;50.73;;;4.90;92.30;;;;;;5060403;28;20243;-86
2024/03/13 03:19:34;;;;;;;62.10;49.03;;;4.80;92.50;;;;;;5041962;28;20187;-86
2024/03/13 03:22:00;;;;;;;66.77;50.40;;;4.80;92.70;;;;;;5060335;28;20522;-86
2024/03/13 03:24:29;;;;;;;60.73;49.57;;;4.80;92.70;;;;;;5042261;28;20176;-87
2024/03/13 03:26:55;;;;;;;60.60;49.67;;;4.70;92.70;;;;;;5042128;28;20180;-87
2024/03/13 03:29:21;;;;;;;56.30;48.87;;;4.60;92.80;;;;;;5042670;28;20187;-86
2024/03/13 03:31:47;;;;;;;62.23;51.13;;;4.60;92.80;;;;;;5042508;28;20710;-86
2024/03/13 03:34:13;;;;;;;56.67;50.20;;;4.70;93.00;;;;;;5042508;28;20172;-86
2024/03/13 03:36:41;;;;;;;56.53;48.30;;;4.70;92.90;;;;;;5059639;28;20202;-87
2024/03/13 03:39:16;;;;;;;63.13;51.87;;;4.80;92.90;;;;;;5059311;28;20186;-86
2024/03/13 03:41:47;;;;;;;59.83;50.70;;;4.70;92.90;;;;;;5060042;28;20201;-87
2024/03/13 03:44:13;;;;;;;61.60;50.50;;;4.60;92.90;;;;;;5041790;28;20531;-87
2024/03/13 03:46:40;;;;;;;57.73;49.63;;;4.60;92.90;;;;;;5060215;28;20172;-86
2024/03/13 03:49:06;;;;;;;56.93;49.73;;;4.70;93.00;;;;;;5059897;28;20643;-87
2024/03/13 03:51:32;;;;;;;61.00;51.67;;;4.70;93.00;;;;;;5041643;28;20200;-86
2024/03/13 03:53:58;;;;;;;57.43;51.00;;;4.70;92.90;;;;;;5059251;28;20165;-86
2024/03/13 03:56:24;;;;;;;57.90;49.73;;;4.70;92.90;;;;;;5058560;28;20175;-87
2024/03/13 03:58:50;;;;;;;52.73;41.57;;;4.80;92.90;;;;;;5040914;28;20257;-87
2024/03/13 04:01:17;;;;;;;55.40;41.37;;;4.80;92.80;;;;;;5058671;28;20195;-86
2024/03/13 04:03:42;;;;;;;53.37;41.67;;;4.60;92.60;;;;;;5040802;28;20184;-87
2024/03/13 04:06:08;;;;;;;55.53;41.50;;;4.50;92.50;;;;;;5058583;28;20686;-86
2024/03/13 04:08:34;;;;;;;53.73;41.80;;;4.40;92.40;;;;;;5040968;28;20168;-87
2024/03/13 04:10:59;;;;;;;54.27;41.23;;;4.30;92.50;;;;;;5058017;28;20245;-86
2024/03/13 04:13:25;;;;;;;58.03;41.63;;;4.30;92.50;;;;;;5040889;28;20172;-87
2024/03/13 04:15:52;;;;;;;48.97;39.67;;;4.20;92.50;;;;;;5058270;28;20180;-88
2024/03/13 04:18:18;;;;;;;54.97;41.43;;;4.20;92.50;;;;;;5038457;28;20182;-86
2024/03/13 04:20:45;;;;;;;48.37;39.17;;;4.20;92.50;;;;;;5041423;28;20214;-87
2024/03/13 04:23:13;;;;;;;44.90;38.60;;;4.10;92.50;;;;;;5059252;28;20168;-86
2024/03/13 04:25:40;;;;;;;44.33;38.00;;;4.20;92.50;;;;;;5040815;28;20199;-86
2024/03/13 04:28:07;;;;;;;48.20;39.13;;;4.30;92.50;;;;;;5058563;28;20186;-86
2024/03/13 04:30:32;;;;;;;49.87;40.77;;;4.20;92.30;;;;;;5041577;28;20180;-86
2024/03/13 04:32:58;;;;;;;49.93;40.67;;;4.20;92.20;;;;;;5059792;28;20192;-87
2024/03/13 04:35:24;;;;;;;52.17;42.53;;;4.20;92.10;;;;;;5058398;28;20179;-87
2024/03/13 04:37:50;;;;;;;50.23;39.90;;;4.20;92.00;;;;;;5040865;28;20674;-87
2024/03/13 04:40:18;;;;;;;53.27;43.33;;;4.30;91.80;;;;;;5058643;28;20213;-87
2024/03/13 04:42:44;;;;;;;54.37;43.80;;;4.30;91.60;;;;;;5058103;28;20192;-87
2024/03/13 04:45:10;;;;;;;53.43;44.13;;;4.20;91.40;;;;;;5040005;28;20203;-86
2024/03/13 04:47:35;;;;;;;58.57;43.73;;;4.20;91.20;;;;;;5040274;28;20179;-87
2024/03/13 04:50:02;;;;;;;59.93;44.77;;;4.20;91.20;;;;;;5040740;28;20307;-87
2024/03/13 04:52:29;;;;;;;58.87;44.80;;;4.20;91.20;;;;;;5058567;28;20187;-86
2024/03/13 04:54:55;;;;;;;66.37;46.37;;;4.20;91.20;;;;;;5059217;28;20540;-87
2024/03/13 04:57:21;;;;;;;71.97;48.70;;;4.30;91.40;;;;;;5040460;28;20179;-86
2024/03/13 04:59:46;;;;;;;70.57;48.27;;;4.30;91.50;;;;;;5040379;28;20210;-86
2024/03/13 05:02:14;;;;;;;69.63;45.80;;;4.30;91.60;;;;;;5039442;28;20195;-86
2024/03/13 05:04:42;;;;;;;70.80;45.27;;;4.20;91.60;;;;;;5040822;28;20257;-87
2024/03/13 05:07:09;;;;;;;72.40;53.27;;;4.30;91.90;;;;;;5058826;28;20167;-88
2024/03/13 05:09:36;;;;;;;77.17;55.13;;;4.30;92.10;;;;;;5058510;28;20175;-86
2024/03/13 05:12:03;;;;;;;83.23;58.33;;;4.20;92.10;;;;;;5040566;28;20244;-86
2024/03/13 05:14:29;;;;;;;77.63;54.83;;;4.20;92.30;;;;;;5039925;28;20187;-87
2024/03/13 05:16:55;;;;;;;82.73;58.70;;;4.10;92.30;;;;;;5039969;28;20172;-87
2024/03/13 05:19:21;;;;;;;78.53;56.10;;;4.20;92.50;;;;;;5057644;28;20533;-87
2024/03/13 05:21:46;;;;;;;84.23;58.63;;;4.20;92.60;;;;;;5040082;28;20195;-86
2024/03/13 05:24:15;;;;;;;78.27;57.17;;;4.30;92.70;;;;;;5057912;28;20186;-86
2024/03/13 05:26:41;;;;;;;78.27;56.57;;;4.30;92.70;;;;;;5041216;28;20286;-87
2024/03/13 05:29:09;;;;;;;80.17;58.57;;;4.30;92.60;;;;;;5057723;28;20163;-86
2024/03/13 05:31:37;;;;;;;78.43;56.57;;;4.20;92.50;;;;;;5059171;28;20184;-87
2024/03/13 05:34:03;;;;;;;82.13;58.70;;;4.00;92.50;;;;;;5041629;28;20183;-86
2024/03/13 05:36:28;;;;;;;76.37;56.10;;;4.00;92.70;;;;;;5041963;28;20180;-86
2024/03/13 05:38:55;;;;;;;88.13;57.57;;;4.10;92.80;;;;;;5059372;28;20235;-87
2024/03/13 05:41:21;;;;;;;82.37;56.40;;;4.00;92.80;;;;;;5042114;28;20204;-87
2024/03/13 05:43:46;;;;;;;82.30;53.43;;;4.00;92.90;;;;;;5059968;28;20187;-86
2024/03/13 05:46:12;;;;;;;80.60;56.77;;;4.00;93.00;;;;;;5042146;28;20671;-86
2024/03/13 05:48:37;;;;;;;79.20;55.83;;;4.00;93.00;;;;;;5042051;28;20179;-86
2024/03/13 05:51:03;;;;;;;83.77;55.53;;;4.10;93.00;;;;;;5059141;28;20188;-87
2024/03/13 05:53:29;;;;;;;76.20;53.10;;;4.00;92.90;;;;;;5039276;28;20228;-86
2024/03/13 05:55:54;;;;;;;81.63;54.10;;;3.90;92.80;;;;;;5039268;28;20198;-87
2024/03/13 05:58:20;;;;;;;82.87;54.27;;;3.90;92.90;;;;;;5057686;28;20186;-87
2024/03/13 06:00:46;;;;;;;77.90;56.03;;;3.90;93.00;;;;;;5040256;28;20180;-86
2024/03/13 06:03:12;;;;;;;79.53;57.20;;;3.90;93.10;;;;;;5058082;28;20200;-86
2024/03/13 06:05:38;;;;;;;84.60;58.40;;;4.00;93.10;;;;;;5040530;28;20207;-87
2024/03/13 06:08:03;;;;;;;81.57;56.37;;;4.00;93.10;;;;;;5058278;28;20271;-87
2024/03/13 06:10:29;;;;;;;76.23;55.50;;;4.00;93.10;;;;;;5040977;28;20711;-87
2024/03/13 06:12:54;;;;;;;80.47;57.67;;;4.00;93.10;;;;;;5058038;28;20243;-87
2024/03/13 06:15:21;;;;;;;84.70;54.40;;;4.00;93.10;;;;;;5039483;28;20223;-86
2024/03/13 06:17:47;;;;;;;86.13;58.80;;;4.00;93.00;;;;;;5039250;28;20226;-86
2024/03/13 06:20:17;;;;;;;82.90;54.60;;;3.90;93.10;;;;;;5039515;28;20190;-86
2024/03/13 06:22:43;;;;;;;87.07;56.07;;;3.90;93.10;;;;;;5039770;28;20587;-86
2024/03/13 06:25:09;;;;;;;79.73;56.07;;;4.00;93.30;;;;;;5039544;28;20203;-86
2024/03/13 06:27:36;;;;;;;86.07;57.50;;;4.10;93.30;;;;;;5057368;28;20168;-86
2024/03/13 06:30:02;;;;;;;83.20;56.83;;;4.10;93.20;;;;;;5039134;28;20176;-87
2024/03/13 06:32:31;;;;;;;87.00;56.80;;;4.10;93.20;;;;;;5057087;28;20200;-87
2024/03/13 06:35:02;;;;;;;83.90;53.50;;;4.10;93.30;;;;;;5037552;28;20194;-87
2024/03/13 06:37:28;;;;;;;87.57;59.10;;;4.20;93.30;;;;;;5039384;28;20178;-88
2024/03/13 06:39:54;;;;;;;88.80;57.33;;;4.30;93.40;;;;;;5058323;28;20179;-88
2024/03/13 06:42:19;;;;;;;81.57;55.33;;;4.30;93.30;;;;;;5042113;28;20318;-86
2024/03/13 06:44:45;;;;;;;82.00;54.33;;;4.30;93.30;;;;;;5042926;28;20573;-86
2024/03/13 06:47:11;;;;;;;80.30;54.40;;;4.40;93.30;;;;;;5060475;28;20195;-86
2024/03/13 06:49:39;;;;;;;84.93;47.47;;;4.40;93.30;;;;;;5042466;28;20176;-86
2024/03/13 06:52:07;;;;;;;84.83;47.90;;;4.50;93.40;;;;;;5043870;28;20241;-86
2024/03/13 06:54:32;;;;;;;81.43;47.13;;;4.50;93.30;;;;;;5043850;28;20203;-86
2024/03/13 06:56:58;;;;;;;82.77;48.03;;;4.40;93.30;;;;;;5043891;28;20226;-87
2024/03/13 06:59:24;;;;;;;78.17;46.57;;;4.60;93.40;;;;;;5061340;28;20167;-86
2024/03/13 07:01:55;;;;;;;82.27;45.83;;;4.70;93.40;;;;;;5044111;28;20552;-87
2024/03/13 07:04:22;;;;;;;85.63;47.53;;;4.70;93.30;;;;;;5043728;28;20171;-86
2024/03/13 07:06:48;;;;;;;86.13;46.33;;;4.70;93.40;;;;;;5042230;28;20175;-87
2024/03/13 07:09:14;;;;;;;84.33;47.53;;;4.70;93.50;;;;;;5041996;28;20229;-86
2024/03/13 07:11:39;;;;;;;85.10;46.13;;;4.70;93.50;;;;;;5041540;28;20587;-87
2024/03/13 07:14:11;;;;;;;88.80;47.10;;;4.70;93.60;;;;;;5060366;28;20194;-86
2024/03/13 07:16:37;;;;;;;89.73;47.80;;;4.80;93.60;;;;;;5041537;28;20168;-86
2024/03/13 07:19:07;;;;;;;82.67;46.33;;;4.80;93.70;;;;;;5042360;28;20182;-86
2024/03/13 07:21:33;;;;;;;84.93;46.00;;;4.80;93.70;;;;;;5060099;28;20197;-86
2024/03/13 07:23:59;;;;;;;85.97;47.63;;;4.90;93.80;;;;;;5060825;28;20257;-87
2024/03/13 07:26:26;;;;;;;81.23;43.70;;;4.90;93.80;;;;;;5042942;28;20683;-86
2024/03/13 07:28:51;;;;;;;83.50;45.03;;;5.00;93.80;;;;;;5060571;28;20168;-88
2024/03/13 07:31:17;;;;;;;79.37;44.80;;;5.10;93.80;;;;;;5061265;28;20209;-86
2024/03/13 07:33:42;;;;;;;85.60;47.27;;;5.20;93.70;;;;;;5061112;28;20187;-86
2024/03/13 07:36:08;;;;;;;75.73;44.57;;;5.30;93.70;;;;;;5042736;28;20206;-86
2024/03/13 07:38:36;;;;;;;80.27;43.00;;;5.30;93.60;;;;;;5061479;28;20191;-86
2024/03/13 07:41:02;;;;;;;74.70;43.70;;;5.40;93.60;;;;;;5056748;28;20171;-87
2024/03/13 07:43:30;;;;;;;79.20;43.80;;;5.40;93.40;;;;;;5056814;28;20251;-86
2024/03/13 07:45:57;;;;;;;73.23;42.77;;;5.40;93.30;;;;;;5041982;28;20238;-86
2024/03/13 07:48:22;;;;;;;70.87;42.03;;;5.50;93.30;;;;;;5041927;28;20176;-86
2024/03/13 07:50:48;;;;;;;75.50;41.50;;;5.60;93.30;;;;;;5043300;28;20566;-86
2024/03/13 07:53:14;;;;;;;74.30;42.93;;;5.60;93.20;;;;;;5042884;28;20250;-86
2024/03/13 07:55:39;;;;;;;73.43;42.53;;;5.80;93.20;;;;;;5060759;28;20569;-86
2024/03/13 07:58:05;;;;;;;79.70;42.10;;;5.80;93.00;;;;;;5060202;28;20180;-87
2024/03/13 08:00:35;;;;;;;74.77;44.07;;;5.90;93.00;;;;;;5061303;28;20196;-86
2024/03/13 08:03:00;;;;;;;71.70;41.63;;;6.00;92.80;;;;;;5040619;28;20203;-87
2024/03/13 08:05:26;;;;;;;70.77;40.43;;;6.10;92.80;;;;;;5042470;28;20196;-87
2024/03/13 08:07:52;;;;;;;68.30;41.70;;;6.20;92.70;;;;;;5045077;28;20551;-86
2024/03/13 08:10:19;;;;;;;69.93;41.70;;;6.30;92.80;;;;;;5060915;28;20183;-87
2024/03/13 08:12:45;;;;;;;70.07;41.80;;;6.30;92.50;;;;;;5062402;28;20208;-86
2024/03/13 08:15:11;;;;;;;63.93;40.07;;;6.30;92.30;;;;;;5062386;28;20180;-87
2024/03/13 08:17:37;;;;;;;71.00;40.97;;;6.30;92.10;;;;;;5046137;28;20573;-87
2024/03/13 08:20:04;;;;;;;67.23;41.10;;;6.30;92.20;;;;;;5064566;28;20255;-87
2024/03/13 08:22:29;;;;;;;67.70;39.57;;;6.40;92.20;;;;;;5047152;28;20199;-87
2024/03/13 08:24:55;;;;;;;66.20;38.90;;;6.40;92.20;;;;;;5065294;28;20245;-87
2024/03/13 08:27:21;;;;;;;62.10;39.47;;;6.40;92.10;;;;;;5067481;28;20168;-88
2024/03/13 08:29:47;;;;;;;62.60;39.67;;;6.50;91.80;;;;;;5065478;28;20169;-87
2024/03/13 08:32:12;;;;;;;63.23;38.63;;;6.50;91.80;;;;;;5064969;28;20211;-86
2024/03/13 08:34:38;;;;;;;65.77;39.00;;;6.60;91.60;;;;;;5064871;28;20209;-87
2024/03/13 08:37:04;;;;;;;64.80;37.90;;;6.70;91.70;;;;;;5045731;28;20194;-85
2024/03/13 08:39:29;;;;;;;61.77;38.40;;;6.70;91.30;;;;;;5061357;28;20175;-87
2024/03/13 08:41:55;;;;;;;58.93;38.53;;;6.80;91.10;;;;;;5060807;28;20334;-86
2024/03/13 08:44:21;;;;;;;61.57;37.63;;;6.90;91.20;;;;;;5060609;28;20184;-86
2024/03/13 08:46:50;;;;;;;58.17;35.73;;;6.90;91.00;;;;;;5060424;28;20203;-86
2024/03/13 08:49:16;;;;;;;59.50;38.03;;;7.00;91.00;;;;;;5043636;28;20225;-86
2024/03/13 08:51:41;;;;;;;55.73;37.87;;;7.00;90.70;;;;;;5043491;28;20192;-85
2024/03/13 08:54:08;;;;;;;59.47;38.70;;;7.10;90.30;;;;;;5042744;28;20643;-86
2024/03/13 08:56:42;;;;;;;52.43;35.73;;;7.20;90.20;;;;;;5042823;28;20172;-86
2024/03/13 08:59:07;;;;;;;57.87;36.83;;;7.30;90.30;;;;;;5060252;28;20664;-86
2024/03/13 09:01:42;;;;;;;60.00;44.37;;;7.30;90.30;;;;;;5060881;28;20223;-85
2024/03/13 09:04:09;;;;;;;57.87;43.53;;;7.30;89.90;;;;;;5060961;28;20533;-86
2024/03/13 09:06:36;;;;;;;54.20;42.30;;;7.50;89.80;;;;;;5060782;28;20196;-86
2024/03/13 09:09:05;;;;;;;49.77;37.83;;;7.40;89.00;;;;;;5043672;28;20173;-86
2024/03/13 09:11:31;;;;;;;57.03;41.63;;;7.60;88.90;;;;;;5042661;28;20223;-86
2024/03/13 09:14:03;;;;;;;55.73;40.77;;;7.80;89.20;;;;;;5042487;28;20198;-86
2024/03/13 09:16:33;;;;;;;54.60;41.37;;;7.80;89.00;;;;;;5041304;28;20164;-87
2024/03/13 09:18:58;;;;;;;56.70;43.43;;;7.70;88.50;;;;;;5056163;28;20171;-86
2024/03/13 09:21:24;;;;;;;52.10;40.27;;;7.70;88.00;;;;;;5040824;28;20686;-86
2024/03/13 09:23:53;;;;;;;52.23;39.53;;;7.80;87.80;;;;;;5060426;28;20168;-86
2024/03/13 09:26:19;;;;;;;47.37;38.57;;;7.90;87.80;;;;;;5060942;28;20184;-86
2024/03/13 09:28:48;;;;;;;48.17;40.53;;;7.90;87.50;;;;;;5060244;28;20171;-86
2024/03/13 09:31:14;;;;;;;49.07;39.90;;;8.00;87.60;;;;;;5059759;28;20192;-86
2024/03/13 09:33:40;;;;;;;50.63;40.07;;;8.00;87.50;;;;;;5059224;28;20190;-87
2024/03/13 09:36:13;;;;;;;49.63;41.17;;;8.00;87.60;;;;;;5040704;28;20176;-88
2024/03/13 09:38:41;;;;;;;43.40;37.77;;;8.10;87.70;;;;;;5058330;28;20180;-83
2024/03/13 09:41:11;;;;;;;53.07;40.73;;;8.20;87.20;;;;;;5062616;28;20207;-86
2024/03/13 09:43:37;;;;;;;44.53;39.37;;;8.20;87.30;;;;;;5060061;28;20207;-86
2024/03/13 09:46:04;;;;;;;47.70;39.40;;;8.30;87.40;;;;;;5042918;28;20706;-87
2024/03/13 09:48:32;;;;;;;45.80;39.60;;;8.40;87.40;;;;;;5041843;28;20180;-86
2024/03/13 09:50:59;;;;;;;49.03;40.53;;;8.40;86.90;;;;;;5060530;28;20172;-86
2024/03/13 09:53:28;;;;;;;45.83;40.10;;;8.40;86.70;;;;;;5042099;28;20243;-86
2024/03/13 09:55:53;;;;;;;50.30;41.97;;;8.40;86.80;;;;;;5059498;28;20202;-86
2024/03/13 09:58:21;;;;;;;48.60;41.80;;;8.50;87.00;;;;;;5040221;28;20651;-86
2024/03/13 10:00:47;;;;;;;51.53;44.40;;;8.60;87.00;;;;;;5059708;28;20191;-85
2024/03/13 10:03:23;;;;;;;43.67;33.67;;;8.50;86.70;;;;;;5040951;28;20180;-86
2024/03/13 10:05:57;;;;;;;48.80;34.27;;;8.60;86.90;;;;;;5059040;28;20187;-88
2024/03/13 10:08:24;;;;;;;45.37;33.03;;;8.70;86.50;;;;;;5060677;28;20548;-86
2024/03/13 10:10:51;;;;;;;40.23;31.87;;;8.80;86.30;;;;;;5041019;28;20182;-86
2024/03/13 10:13:17;;;;;;;40.47;32.30;;;9.10;86.70;;;;;;5058086;28;20186;-86
2024/03/13 10:15:45;;;;;;;40.00;32.37;;;9.30;86.50;;;;;;5041118;28;20184;-86
2024/03/13 10:18:17;;;;;;;44.03;31.80;;;9.40;85.60;;;;;;5047303;28;20237;-87
2024/03/13 10:20:49;;;;;;;40.07;32.70;;;9.40;84.90;;;;;;5065727;28;20174;-85
2024/03/13 10:23:17;;;;;;;39.13;32.83;;;9.30;85.30;;;;;;5066754;28;20243;-86
2024/03/13 10:25:44;;;;;;;40.97;33.17;;;9.30;85.30;;;;;;5047341;28;20210;-86
2024/03/13 10:28:13;;;;;;;39.23;32.10;;;9.30;85.60;;;;;;5065783;28;20536;-86
2024/03/13 10:30:39;;;;;;;35.53;30.03;;;9.20;86.00;;;;;;5044816;28;20184;-86
2024/03/13 10:33:06;;;;;;;39.87;31.43;;;9.30;85.80;;;;;;5063863;28;20202;-86
2024/03/13 10:35:31;;;;;;;35.97;30.53;;;9.20;85.90;;;;;;5046459;28;20663;-86
2024/03/13 10:37:58;;;;;;;32.97;29.20;;;9.30;86.20;;;;;;5063182;28;20187;-85
2024/03/13 10:40:25;;;;;;;34.40;29.90;;;9.20;85.90;;;;;;5062130;28;20178;-86
2024/03/13 10:42:50;;;;;;;35.60;29.63;;;9.30;85.80;;;;;;5044461;28;20204;-85
2024/03/13 10:45:16;;;;;;;36.50;29.50;;;9.40;86.10;;;;;;5043827;28;20202;-85
2024/03/13 10:47:42;;;;;;;36.13;29.70;;;9.40;85.90;;;;;;5063556;28;20176;-85
2024/03/13 10:50:12;;;;;;;32.30;27.73;;;9.60;86.10;;;;;;5063036;28;20173;-86
2024/03/13 10:52:39;;;;;;;31.50;28.10;;;9.60;85.80;;;;;;5062266;28;20567;-85
2024/03/13 10:55:06;;;;;;;32.10;26.33;;;9.60;85.60;;;;;;5044086;28;20184;-86
2024/03/13 10:57:31;;;;;;;30.97;27.60;;;9.80;86.10;;;;;;5065359;28;20306;-86
2024/03/13 10:59:57;;;;;;;34.57;28.40;;;9.70;85.50;;;;;;5065677;28;20179;-86
2024/03/13 11:02:23;;;;;;;34.43;29.17;;;9.90;85.90;;;;;;5065192;28;20207;-86
2024/03/13 11:04:49;;;;;;;32.80;28.03;;;9.80;85.60;;;;;;5065604;28;20188;-86
2024/03/13 11:07:18;;;;;;;35.90;29.27;;;9.80;86.10;;;;;;5065469;28;20176;-86
2024/03/13 11:09:44;;;;;;;31.90;27.30;;;9.90;85.90;;;;;;5047055;28;20183;-86
2024/03/13 11:12:19;;;;;;;39.70;28.83;;;9.90;86.00;;;;;;5046476;28;20212;-86
2024/03/13 11:14:52;;;;;;;32.87;27.30;;;10.00;86.00;;;;;;5065034;28;20164;-86
2024/03/13 11:17:21;;;;;;;33.23;27.50;;;10.00;85.90;;;;;;5064297;28;20161;-87
2024/03/13 11:19:55;;;;;;;31.30;27.57;;;10.00;85.80;;;;;;5064420;28;20214;-86
2024/03/13 11:22:22;;;;;;;34.70;26.50;;;10.20;86.70;;;;;;5060624;28;20210;-86
2024/03/13 11:24:48;;;;;;;32.00;27.33;;;10.30;86.30;;;;;;5061123;28;20250;-87
2024/03/13 11:27:19;;;;;;;31.40;26.93;;;10.50;86.20;;;;;;5060104;28;20309;-87
2024/03/13 11:29:49;;;;;;;31.13;27.57;;;10.60;85.20;;;;;;5042905;28;20180;-86
2024/03/13 11:32:15;;;;;;;32.40;27.53;;;10.50;85.50;;;;;;5042702;28;20188;-86
2024/03/13 11:34:44;;;;;;;32.17;28.63;;;10.40;85.20;;;;;;5043421;28;20202;-86
2024/03/13 11:37:11;;;;;;;33.67;28.30;;;10.50;85.50;;;;;;5062641;28;20199;-86
2024/03/13 11:39:41;;;;;;;30.63;26.90;;;10.50;85.80;;;;;;5064392;28;20636;-85
2024/03/13 11:42:17;;;;;;;32.17;27.43;;;10.40;85.30;;;;;;5045044;28;20192;-86
2024/03/13 11:44:44;;;;;;;32.77;28.03;;;10.50;85.60;;;;;;5043182;28;20223;-86
2024/03/13 11:47:15;;;;;;;31.60;25.93;;;10.50;85.40;;;;;;5046627;28;20180;-86
2024/03/13 11:49:41;;;;;;;31.43;26.47;;;10.60;85.40;;;;;;5063408;28;20175;-86
2024/03/13 11:52:16;;;;;;;31.40;28.13;;;10.50;84.90;;;;;;5045445;28;20714;-86
2024/03/13 11:54:46;;;;;;;34.83;27.33;;;10.70;85.30;;;;;;5044678;28;20199;-86
2024/03/13 11:57:13;;;;;;;32.10;27.90;;;10.60;84.90;;;;;;5044774;28;20190;-86
2024/03/13 11:59:53;;;;;;;30.00;26.40;;;10.80;85.20;;;;;;5064194;28;20179;-86
2024/03/13 12:02:28;;;;;;;30.27;25.77;;;10.70;84.70;;;;;;5045013;28;20195;-86
2024/03/13 12:05:06;;;;;;;32.30;27.70;;;10.80;84.50;;;;;;5063307;28;20329;-87
2024/03/13 12:07:42;;;;;;;32.97;27.63;;;10.60;84.50;;;;;;5063707;28;20155;-86
2024/03/13 12:10:17;;;;;;;31.70;28.30;;;10.70;84.50;;;;;;5065679;28;20168;-86
2024/03/13 12:12:43;;;;;;;32.10;27.43;;;10.70;84.60;;;;;;5067667;28;20206;-87
2024/03/13 12:15:10;;;;;;;30.97;27.57;;;10.60;84.40;;;;;;5047441;28;20553;-86
2024/03/13 12:17:36;;;;;;;31.37;26.97;;;10.80;85.00;;;;;;5068220;28;20195;-87
2024/03/13 12:20:03;;;;;;;33.67;27.23;;;10.80;84.40;;;;;;5048931;28;20176;-87
2024/03/13 12:22:30;;;;;;;34.10;27.13;;;10.90;84.30;;;;;;5064468;28;20215;-86
2024/03/13 12:24:56;;;;;;;32.43;28.07;;;11.00;85.00;;;;;;5063245;28;20210;-86
2024/03/13 12:27:22;;;;;;;31.57;26.93;;;11.00;84.20;;;;;;5063855;28;20164;-86
2024/03/13 12:29:48;;;;;;;29.33;26.00;;;11.10;84.40;;;;;;5046893;28;20183;-86
2024/03/13 12:32:14;;;;;;;29.50;26.40;;;11.10;84.80;;;;;;5062736;28;20266;-86
2024/03/13 12:34:43;;;;;;;30.87;27.33;;;11.20;84.80;;;;;;5062413;28;20200;-88
2024/03/13 12:37:15;;;;;;;27.70;24.77;;;11.00;84.20;;;;;;5043704;28;20187;-87
2024/03/13 12:39:41;;;;;;;29.60;26.47;;;10.80;84.70;;;;;;5060981;28;20163;-87
2024/03/13 12:42:08;;;;;;;32.07;26.43;;;10.90;85.30;;;;;;5060561;28;20187;-88
2024/03/13 12:44:34;;;;;;;30.03;26.87;;;10.90;84.80;;;;;;5037445;28;20171;-88
2024/03/13 12:47:00;;;;;;;30.17;25.83;;;10.80;84.70;;;;;;5055008;28;20537;-86
2024/03/13 12:49:26;;;;;;;28.83;25.17;;;10.70;85.00;;;;;;5037213;28;20182;-89
2024/03/13 12:51:53;;;;;;;26.97;24.07;;;10.70;85.70;;;;;;5037295;28;20192;-89
2024/03/13 12:54:18;;;;;;;34.90;31.13;;;10.70;87.00;;;;;;5054990;28;20168;-86
2024/03/13 12:56:44;;;;;;;34.93;31.53;;;10.70;87.10;;;;;;5054972;28;20172;-88